createdAt,value
2022-10-04T00:02:00.753Z,101594.66
2022-10-04T00:04:44.810Z,101597.50
2022-10-04T00:07:11.744Z,101597.38
2022-10-04T00:09:48.404Z,101595.53
2022-10-04T00:12:45.134Z,101596.50
2022-10-04T00:15:23.745Z,101593.75
2022-10-04T00:18:10.766Z,101601.91
2022-10-04T00:20:56.063Z,101603.63
2022-10-04T00:23:26.627Z,101605.41
2022-10-04T00:26:14.550Z,101593.75
2022-10-04T00:28:43.210Z,101598.03
2022-10-04T00:31:22.234Z,101597.91
2022-10-04T00:33:50.589Z,101595.22
2022-10-04T00:36:26.103Z,101596.06
2022-10-04T00:39:26.947Z,101599.78
2022-10-04T00:42:02.787Z,101605.19
2022-10-04T00:44:53.669Z,101596.22
2022-10-04T00:47:31.598Z,101607.13
2022-10-04T00:50:30.553Z,101595.66
2022-10-04T00:53:00.967Z,101603.75
2022-10-04T00:55:40.944Z,101604.84
2022-10-04T00:58:35.022Z,101605.84
2022-10-04T01:01:04.114Z,101608.66
2022-10-04T01:03:40.861Z,101610.50
2022-10-04T01:06:12.978Z,101605.22
2022-10-04T01:08:53.685Z,101605.31
2022-10-04T01:11:31.328Z,101609.09
2022-10-04T01:14:09.162Z,101602.84
2022-10-04T01:16:38.063Z,101597.44
2022-10-04T01:19:24.495Z,101590.31
2022-10-04T01:22:08.182Z,101585.78
2022-10-04T01:24:42.171Z,101584.06
2022-10-04T01:27:38.615Z,101582.56
2022-10-04T01:30:12.381Z,101584.28
2022-10-04T01:32:40.308Z,101584.28
2022-10-04T01:35:10.730Z,101587.97
2022-10-04T01:37:39.521Z,101586.22
2022-10-04T01:40:09.121Z,101584.53
2022-10-04T01:42:41.913Z,101580.09
2022-10-04T01:45:47.537Z,101583.88
2022-10-04T01:48:25.103Z,101580.34
2022-10-04T01:51:00.912Z,101594.81
2022-10-04T01:53:31.589Z,101581.28
2022-10-04T01:56:17.550Z,101583.03
2022-10-04T01:58:52.379Z,101575.66
2022-10-04T02:01:23.876Z,101576.53
2022-10-04T02:04:10.289Z,101572.00
2022-10-04T02:06:42.209Z,101579.13
2022-10-04T02:09:22.511Z,101573.72
2022-10-04T02:11:54.123Z,101580.09
2022-10-04T02:14:26.433Z,101587.34
2022-10-04T02:16:54.722Z,101581.41
2022-10-04T02:19:33.262Z,101578.72
2022-10-04T02:22:07.843Z,101589.63
2022-10-04T02:24:42.018Z,101576.00
2022-10-04T02:27:09.123Z,101576.00
2022-10-04T02:29:36.268Z,101582.28
2022-10-04T02:32:35.881Z,101577.88
2022-10-04T02:35:04.288Z,101574.31
2022-10-04T02:37:31.361Z,101576.00
2022-10-04T02:40:18.647Z,101575.16
2022-10-04T02:43:04.870Z,101570.72
2022-10-04T02:45:55.523Z,101573.69
2022-10-04T02:48:46.471Z,101580.16
2022-10-04T02:51:34.683Z,101576.84
2022-10-04T02:54:19.082Z,101581.47
2022-10-04T02:56:53.103Z,101588.72
2022-10-04T02:59:20.685Z,101585.63
2022-10-04T03:01:57.739Z,101584.78
2022-10-04T03:04:30.160Z,101590.28
2022-10-04T03:07:00.196Z,101592.25
2022-10-04T03:09:29.856Z,101591.47
2022-10-04T03:11:57.388Z,101589.78
2022-10-04T03:14:27.311Z,101596.13
2022-10-04T03:16:57.837Z,101599.81
2022-10-04T03:19:28.330Z,101599.19
2022-10-04T03:22:01.613Z,101598.31
2022-10-04T03:24:36.930Z,101601.03
2022-10-04T03:27:08.245Z,101608.25
2022-10-04T03:29:40.166Z,101604.56
2022-10-04T03:32:07.665Z,101600.16
2022-10-04T03:34:39.450Z,101604.69
2022-10-04T03:37:12.702Z,101610.97
2022-10-04T03:39:52.663Z,101599.41
2022-10-04T03:42:24.287Z,101611.81
2022-10-04T03:44:55.195Z,101618.19
2022-10-04T03:47:29.964Z,101610.19
2022-10-04T03:50:02.755Z,101613.97
2022-10-04T03:52:34.323Z,101613.00
2022-10-04T03:55:05.712Z,101614.75
2022-10-04T03:57:34.207Z,101612.03
2022-10-04T04:00:02.181Z,101608.34
2022-10-04T04:02:58.442Z,101611.19
2022-10-04T04:05:32.140Z,101618.41
2022-10-04T04:08:12.373Z,101611.19
2022-10-04T04:10:43.972Z,101615.59
2022-10-04T04:13:29.394Z,101614.63
2022-10-04T04:15:57.595Z,101619.06
2022-10-04T04:18:30.189Z,101618.94
2022-10-04T04:21:01.775Z,101621.50
2022-10-04T04:23:41.898Z,101624.97
2022-10-04T04:26:43.572Z,101625.97
2022-10-04T04:29:18.986Z,101631.22
2022-10-04T04:31:59.049Z,101624.97
2022-10-04T04:34:31.254Z,101632.22
2022-10-04T04:37:04.639Z,101631.38
2022-10-04T04:39:40.910Z,101634.06
2022-10-04T04:42:10.570Z,101630.50
2022-10-04T04:45:00.935Z,101639.47
2022-10-04T04:47:36.411Z,101635.91
2022-10-04T04:50:30.467Z,101641.41
2022-10-04T04:53:08.387Z,101643.25
2022-10-04T04:56:04.227Z,101646.81
2022-10-04T04:58:46.679Z,101646.72
2022-10-04T05:01:42.200Z,101660.22
2022-10-04T05:04:09.376Z,101652.09
2022-10-04T05:06:56.919Z,101650.28
2022-10-04T05:09:37.216Z,101652.22
2022-10-04T05:12:21.722Z,101653.06
2022-10-04T05:14:54.244Z,101650.59
2022-10-04T05:17:26.193Z,101665.94
2022-10-04T05:19:58.163Z,101666.06
2022-10-04T05:22:27.128Z,101667.13
2022-10-04T05:25:02.616Z,101663.81
2022-10-04T05:27:38.242Z,101673.63
2022-10-04T05:30:48.865Z,101677.41
2022-10-04T05:33:39.650Z,101681.09
2022-10-04T05:36:13.842Z,101690.91
2022-10-04T05:39:21.580Z,101688.19
2022-10-04T05:42:19.474Z,101685.50
2022-10-04T05:44:52.402Z,101698.78
2022-10-04T05:47:27.799Z,101702.25
2022-10-04T05:49:59.294Z,101703.09
2022-10-04T05:52:33.620Z,101699.41
2022-10-04T05:55:16.210Z,101696.63
2022-10-04T05:57:46.143Z,101711.00
2022-10-04T06:00:20.919Z,101703.75
2022-10-04T06:03:21.153Z,101705.59
2022-10-04T06:06:00.210Z,101708.19
2022-10-04T06:09:10.433Z,101708.06
2022-10-04T06:12:06.541Z,101706.13
2022-10-04T06:14:40.954Z,101718.66
2022-10-04T06:17:29.410Z,101726.63
2022-10-04T06:20:25.763Z,101723.84
2022-10-04T06:23:02.073Z,101727.38
2022-10-04T06:25:44.591Z,101734.50
2022-10-04T06:28:30.518Z,101741.53
2022-10-04T06:31:24.506Z,101747.69
2022-10-04T06:34:31.353Z,101752.13
2022-10-04T06:37:10.633Z,101759.25
2022-10-04T06:40:20.689Z,101760.88
2022-10-04T06:43:09.691Z,101761.72
2022-10-04T06:46:14.966Z,101767.88
2022-10-04T06:48:44.843Z,101774.06
2022-10-04T06:51:27.268Z,101781.28
2022-10-04T06:54:32.446Z,101780.31
2022-10-04T06:57:08.628Z,101782.91
2022-10-04T07:00:15.550Z,101786.59
2022-10-04T07:02:50.978Z,101792.00
2022-10-04T07:05:32.625Z,101791.78
2022-10-04T07:08:11.781Z,101794.56
2022-10-04T07:10:50.538Z,101800.84
2022-10-04T07:13:41.248Z,101797.94
2022-10-04T07:16:16.634Z,101795.97
2022-10-04T07:19:29.958Z,101800.28
2022-10-04T07:22:12.306Z,101805.56
2022-10-04T07:24:53.946Z,101810.03
2022-10-04T07:27:34.875Z,101818.78
2022-10-04T07:30:14.696Z,101812.28
2022-10-04T07:32:48.272Z,101819.19
2022-10-04T07:35:39.939Z,101817.13
2022-10-04T07:38:12.939Z,101817.00
2022-10-04T07:41:20.341Z,101816.78
2022-10-04T07:44:04.509Z,101816.69
2022-10-04T07:46:40.195Z,101815.69
2022-10-04T07:49:20.832Z,101819.03
2022-10-04T07:52:13.070Z,101814.31
2022-10-04T07:54:50.168Z,101818.63
2022-10-04T07:57:30.055Z,101812.13
2022-10-04T08:00:22.101Z,101801.97
2022-10-04T08:03:23.256Z,101811.56
2022-10-04T08:06:13.891Z,101811.47
2022-10-04T08:09:41.363Z,101820.22
2022-10-04T08:12:35.842Z,101820.09
2022-10-04T08:15:37.131Z,101826.25
2022-10-04T08:18:18.888Z,101831.53
2022-10-04T08:20:48.688Z,101825.16
2022-10-04T08:24:19.316Z,101821.38
2022-10-04T08:27:12.460Z,101825.66
2022-10-04T08:30:13.158Z,101822.75
2022-10-04T08:32:46.218Z,101822.00
2022-10-04T08:35:37.646Z,101825.44
2022-10-04T08:38:21.330Z,101823.72
2022-10-04T08:41:03.570Z,101825.44
2022-10-04T08:44:25.034Z,101826.44
2022-10-04T08:47:33.706Z,101839.09
2022-10-04T08:50:09.377Z,101845.38
2022-10-04T08:53:17.503Z,101848.84
2022-10-04T08:59:00.439Z,101847.72
2022-10-04T09:02:12.533Z,101854.66
2022-10-04T09:05:30.124Z,101862.41
2022-10-04T09:08:33.185Z,101865.88
2022-10-04T09:11:23.865Z,101859.34
2022-10-04T09:14:40.243Z,101857.41
2022-10-04T09:17:46.455Z,101868.84
2022-10-04T09:20:38.786Z,101875.03
2022-10-04T09:23:24.289Z,101873.06
2022-10-04T09:26:20.962Z,101876.44
2022-10-04T09:29:15.360Z,101883.56
2022-10-04T09:32:03.359Z,101880.09
2022-10-04T09:35:04.019Z,101879.84
2022-10-04T09:38:10.130Z,101863.63
2022-10-04T09:40:52.499Z,101868.03
2022-10-04T09:43:47.084Z,101865.09
2022-10-04T09:46:56.175Z,101863.28
2022-10-04T09:49:37.817Z,101875.72
2022-10-04T09:52:24.345Z,101871.81
2022-10-04T09:55:34.120Z,101874.28
2022-10-04T09:58:38.441Z,101876.75
2022-10-04T10:01:42.694Z,101880.09
2022-10-04T10:04:50.517Z,101875.41
2022-10-04T10:07:39.031Z,101865.25
2022-10-04T10:11:07.853Z,101877.81
2022-10-04T10:14:40.284Z,101873.03
2022-10-04T10:17:25.789Z,101868.25
2022-10-04T10:20:30.031Z,101868.50
2022-10-04T10:23:19.710Z,101865.56
2022-10-04T10:25:59.178Z,101865.31
2022-10-04T10:28:48.179Z,101871.97
2022-10-04T10:31:30.291Z,101865.22
2022-10-04T10:34:32.356Z,101863.38
2022-10-04T10:37:17.448Z,101869.41
2022-10-04T10:40:08.644Z,101862.81
2022-10-04T10:43:34.190Z,101859.84
2022-10-04T10:46:31.585Z,101860.72
2022-10-04T10:49:40.324Z,101862.72
2022-10-04T10:52:47.778Z,101862.09
2022-10-04T10:55:49.214Z,101861.47
2022-10-04T10:59:05.735Z,101865.44
2022-10-04T11:02:48.299Z,101871.28
2022-10-04T11:05:58.206Z,101867.31
2022-10-04T11:08:57.500Z,101868.31
2022-10-04T11:15:39.929Z,101863.25
2022-10-04T11:18:40.988Z,101863.59
2022-10-04T11:22:07.329Z,101865.06
2022-10-04T11:25:08.236Z,101857.41
2022-10-04T11:27:57.184Z,101855.94
2022-10-04T11:30:29.886Z,101860.31
2022-10-04T11:33:17.339Z,101854.28
2022-10-04T11:36:33.592Z,101848.19
2022-10-04T11:39:52.895Z,101844.25
2022-10-04T11:42:28.594Z,101852.88
2022-10-04T11:45:33.960Z,101849.06
2022-10-04T11:48:34.925Z,101843.22
2022-10-04T11:51:35.208Z,101846.19
2022-10-04T11:54:30.891Z,101849.00
2022-10-04T11:57:25.397Z,101848.38
2022-10-04T12:00:04.655Z,101841.53
2022-10-04T12:02:57.780Z,101848.41
2022-10-04T12:05:49.989Z,101836.31
2022-10-04T12:08:53.465Z,101836.38
2022-10-04T12:12:00.394Z,101844.84
2022-10-04T12:14:53.255Z,101827.03
2022-10-04T12:18:32.996Z,101829.19
2022-10-04T12:21:29.021Z,101816.22
2022-10-04T12:24:09.199Z,101810.13
2022-10-04T12:27:07.770Z,101812.84
2022-10-04T12:30:00.683Z,101805.00
2022-10-04T12:33:03.176Z,101812.44
2022-10-04T12:35:57.607Z,101811.16
2022-10-04T12:38:33.659Z,101800.44
2022-10-04T12:41:28.863Z,101791.31
2022-10-04T12:44:13.606Z,101789.00
2022-10-04T12:47:18.147Z,101796.50
2022-10-04T12:50:19.003Z,101788.59
2022-10-04T12:53:37.070Z,101792.19
2022-10-04T12:56:22.324Z,101790.91
2022-10-04T12:59:05.692Z,101782.06
2022-10-04T13:01:47.554Z,101784.22
2022-10-04T13:04:33.186Z,101785.47
2022-10-04T13:07:24.076Z,101780.88
2022-10-04T13:10:26.173Z,101770.28
2022-10-04T13:13:41.225Z,101776.63
2022-10-04T13:20:13.993Z,101772.75
2022-10-04T13:22:59.237Z,101765.59
2022-10-04T13:25:47.796Z,101768.63
2022-10-04T13:28:50.016Z,101766.19
2022-10-04T13:31:24.592Z,101757.31
2022-10-04T13:34:36.731Z,101760.47
2022-10-04T13:37:15.947Z,101764.19
2022-10-04T13:39:59.984Z,101759.19
2022-10-04T13:42:57.112Z,101759.47
2022-10-04T13:45:41.207Z,101752.50
2022-10-04T13:48:27.633Z,101746.50
2022-10-04T13:51:28.465Z,101745.38
2022-10-04T13:54:19.987Z,101749.25
2022-10-04T13:56:52.064Z,101750.25
2022-10-04T13:59:49.760Z,101747.81
2022-10-04T14:02:44.541Z,101758.59
2022-10-04T14:05:28.089Z,101755.00
2022-10-04T14:08:25.864Z,101749.25
2022-10-04T14:11:16.679Z,101747.25
2022-10-04T14:14:33.245Z,101753.13
2022-10-04T14:17:32.928Z,101759.16
2022-10-04T14:20:53.425Z,101759.28
2022-10-04T14:23:38.847Z,101751.84
2022-10-04T14:26:39.589Z,101751.84
2022-10-04T14:29:28.970Z,101750.69
2022-10-04T14:32:29.960Z,101756.28
2022-10-04T14:35:13.326Z,101757.00
2022-10-04T14:38:24.520Z,101752.69
2022-10-04T14:41:30.191Z,101750.22
2022-10-04T14:44:31.646Z,101748.06
2022-10-04T14:47:37.705Z,101751.06
2022-10-04T14:51:13.323Z,101751.34
2022-10-04T14:54:26.453Z,101744.19
2022-10-04T14:57:05.248Z,101738.75
2022-10-04T14:59:35.425Z,101746.78
2022-10-04T15:02:17.851Z,101740.34
2022-10-04T15:05:31.772Z,101733.19
2022-10-04T15:08:21.074Z,101732.28
2022-10-04T15:11:19.050Z,101732.16
2022-10-04T15:14:01.271Z,101733.47
2022-10-04T15:16:50.063Z,101742.31
2022-10-04T15:20:18.455Z,101740.63
2022-10-04T15:22:54.770Z,101739.75
2022-10-04T15:25:47.443Z,101737.91
2022-10-04T15:28:33.749Z,101737.91
2022-10-04T15:31:37.691Z,101740.63
2022-10-04T15:34:34.293Z,101733.31
2022-10-04T15:37:14.813Z,101743.19
2022-10-04T15:40:33.169Z,101735.00
2022-10-04T15:43:24.674Z,101733.31
2022-10-04T15:46:47.955Z,101737.72
2022-10-04T15:50:11.161Z,101741.47
2022-10-04T15:53:19.894Z,101732.72
2022-10-04T15:56:22.287Z,101748.31
2022-10-04T15:59:22.312Z,101748.47
2022-10-04T16:02:02.622Z,101745.88
2022-10-04T16:05:13.093Z,101747.91
2022-10-04T16:08:14.635Z,101748.31
2022-10-04T16:11:15.444Z,101751.28
2022-10-04T16:13:51.440Z,101758.75
2022-10-04T16:16:19.549Z,101755.31
2022-10-04T16:19:30.195Z,101753.59
2022-10-04T16:22:18.614Z,101766.63
2022-10-04T16:24:58.662Z,101768.75
2022-10-04T16:27:56.405Z,101770.88
2022-10-04T16:31:01.144Z,101772.28
2022-10-04T16:34:01.230Z,101774.44
2022-10-04T16:36:55.265Z,101785.84
2022-10-04T16:39:59.863Z,101787.25
2022-10-04T16:42:49.086Z,101799.50
2022-10-04T16:46:13.865Z,101797.19
2022-10-04T16:48:46.817Z,101792.28
2022-10-04T16:51:36.137Z,101787.25
2022-10-04T16:54:39.123Z,101802.97
2022-10-04T16:57:16.033Z,101800.78
2022-10-04T16:59:48.077Z,101797.59
2022-10-04T17:02:37.626Z,101807.00
2022-10-04T17:05:49.335Z,101813.84
2022-10-04T17:08:16.151Z,101814.34
2022-10-04T17:10:48.888Z,101826.34
2022-10-04T17:13:37.014Z,101821.47
2022-10-04T17:16:15.083Z,101826.41
2022-10-04T17:19:29.600Z,101837.53
2022-10-04T17:22:09.206Z,101836.34
2022-10-04T17:24:44.903Z,101847.31
2022-10-04T17:27:47.613Z,101842.41
2022-10-04T17:30:25.125Z,101847.22
2022-10-04T17:33:08.006Z,101851.91
2022-10-04T17:35:56.735Z,101865.97
2022-10-04T17:38:35.565Z,101862.66
2022-10-04T17:41:18.947Z,101868.47
2022-10-04T17:43:56.164Z,101875.28
2022-10-04T17:46:46.319Z,101877.38
2022-10-04T17:49:54.173Z,101874.28
2022-10-04T17:52:52.789Z,101882.81
2022-10-04T17:55:34.408Z,101883.22
2022-10-04T17:58:17.989Z,101882.69
2022-10-04T18:01:07.901Z,101884.66
2022-10-04T18:04:17.239Z,101885.06
2022-10-04T18:07:22.227Z,101887.16
2022-10-04T18:09:53.107Z,101885.69
2022-10-04T18:12:28.695Z,101881.22
2022-10-04T18:15:25.852Z,101886.78
2022-10-04T18:18:19.912Z,101892.56
2022-10-04T18:21:28.801Z,101891.94
2022-10-04T18:24:17.520Z,101897.50
2022-10-04T18:27:01.052Z,101898.75
2022-10-04T18:29:45.432Z,101900.84
2022-10-04T18:32:28.197Z,101907.38
2022-10-04T18:34:58.375Z,101902.16
2022-10-04T18:37:36.789Z,101908.69
2022-10-04T18:40:23.820Z,101917.06
2022-10-04T18:43:01.955Z,101909.91
2022-10-04T18:45:31.155Z,101921.00
2022-10-04T18:48:02.165Z,101921.25
2022-10-04T18:50:39.254Z,101922.47
2022-10-04T18:53:44.615Z,101930.94
2022-10-04T18:56:13.089Z,101930.56
2022-10-04T18:59:26.029Z,101931.56
2022-10-04T19:02:07.252Z,101937.22
2022-10-04T19:04:58.897Z,101938.31
2022-10-04T19:07:55.401Z,101944.81
2022-10-04T19:11:08.360Z,101951.47
2022-10-04T19:13:49.823Z,101948.00
2022-10-04T19:16:48.268Z,101957.97
2022-10-04T19:19:47.800Z,101965.59
2022-10-04T19:22:37.598Z,101962.25
2022-10-04T19:25:31.997Z,101970.63
2022-10-04T19:28:10.554Z,101976.50
2022-10-04T19:30:59.233Z,101977.34
2022-10-04T19:33:48.519Z,101983.75
2022-10-04T19:36:47.343Z,101980.31
2022-10-04T19:39:17.533Z,101991.25
2022-10-04T19:42:05.137Z,101989.63
2022-10-04T19:44:55.402Z,101991.59
2022-10-04T19:47:40.645Z,101996.25
2022-10-04T19:50:27.459Z,101992.91
2022-10-04T19:53:22.317Z,101999.44
2022-10-04T19:56:00.975Z,101998.53
2022-10-04T19:58:40.789Z,102001.38
2022-10-04T20:01:23.221Z,102001.38
2022-10-04T20:04:11.998Z,102000.63
2022-10-04T20:06:49.924Z,102015.16
2022-10-04T20:09:51.438Z,102018.84
2022-10-04T20:12:41.955Z,102013.50
2022-10-04T20:15:17.759Z,102018.03
2022-10-04T20:17:47.703Z,102021.63
2022-10-04T20:20:38.787Z,102020.97
2022-10-04T20:23:07.875Z,102027.47
2022-10-04T20:25:44.558Z,102031.28
2022-10-04T20:28:41.670Z,102037.03
2022-10-04T20:31:30.405Z,102033.59
2022-10-04T20:34:33.207Z,102029.25
2022-10-04T20:37:00.486Z,102034.88
2022-10-04T20:39:56.747Z,102047.66
2022-10-04T20:42:38.848Z,102054.16
2022-10-04T20:45:11.967Z,102048.88
2022-10-04T20:47:58.318Z,102046.38
2022-10-04T20:50:42.167Z,102052.88
2022-10-04T20:53:26.012Z,102053.09
2022-10-04T20:56:14.238Z,102054.84
2022-10-04T20:58:41.545Z,102051.38
2022-10-04T21:01:38.292Z,102053.44
2022-10-04T21:04:33.721Z,102058.94
2022-10-04T21:07:06.601Z,102057.22
2022-10-04T21:09:36.655Z,102058.19
2022-10-04T21:12:06.537Z,102059.28
2022-10-04T21:14:37.025Z,102063.91
2022-10-04T21:17:28.100Z,102064.91
2022-10-04T21:19:55.361Z,102066.97
2022-10-04T21:22:30.962Z,102067.94
2022-10-04T21:25:05.408Z,102065.47
2022-10-04T21:27:37.357Z,102061.84
2022-10-04T21:30:17.662Z,102061.97
2022-10-04T21:32:44.779Z,102071.16
2022-10-04T21:35:12.978Z,102071.28
2022-10-04T21:37:40.266Z,102073.22
2022-10-04T21:40:08.819Z,102075.16
2022-10-04T21:42:36.518Z,102074.31
2022-10-04T21:45:04.085Z,102079.06
2022-10-04T21:47:31.038Z,102078.19
2022-10-04T21:49:57.921Z,102080.91
2022-10-04T21:52:25.146Z,102087.28
2022-10-04T21:54:52.209Z,102091.72
2022-10-04T21:57:19.361Z,102089.13
2022-10-04T21:59:47.422Z,102087.59
2022-10-04T22:02:14.662Z,102099.41
2022-10-04T22:04:41.902Z,102088.78
2022-10-04T22:07:10.588Z,102097.13
2022-10-04T22:09:37.575Z,102097.31
2022-10-04T22:12:04.601Z,102093.88
2022-10-04T22:14:31.580Z,102096.59
2022-10-04T22:16:58.549Z,102098.47
2022-10-04T22:19:25.562Z,102102.47
2022-10-04T22:21:52.458Z,102115.31
2022-10-04T22:24:21.179Z,102105.69
2022-10-04T22:26:49.023Z,102124.91
2022-10-04T22:29:18.853Z,102119.75
2022-10-04T22:31:52.348Z,102128.06
2022-10-04T22:34:22.779Z,102130.75
2022-10-04T22:36:52.974Z,102126.41
2022-10-04T22:39:21.087Z,102123.72
2022-10-04T22:41:56.618Z,102135.72
2022-10-04T22:44:26.356Z,102133.22
2022-10-04T22:46:56.900Z,102139.56
2022-10-04T22:49:31.888Z,102137.72
2022-10-04T22:52:02.163Z,102129.72
2022-10-04T22:54:34.366Z,102132.44
2022-10-04T22:57:01.827Z,102120.75
2022-10-04T22:59:43.132Z,102131.66
2022-10-04T23:02:21.994Z,102124.66
2022-10-04T23:05:17.576Z,102127.63
2022-10-04T23:07:46.521Z,102130.25
2022-10-04T23:10:17.634Z,102131.31
2022-10-04T23:12:51.574Z,102134.00
2022-10-04T23:15:20.763Z,102135.84
2022-10-04T23:17:55.487Z,102153.00
2022-10-04T23:20:23.147Z,102148.69
2022-10-04T23:22:53.259Z,102146.94
2022-10-04T23:25:30.643Z,102155.16
2022-10-04T23:28:02.245Z,102161.50
2022-10-04T23:30:29.817Z,102157.19
2022-10-04T23:33:00.581Z,102153.72
2022-10-04T23:35:33.198Z,102157.47
2022-10-04T23:38:03.689Z,102147.53
2022-10-04T23:40:30.932Z,102155.84
2022-10-04T23:43:05.695Z,102146.00
2022-10-04T23:45:35.327Z,102144.28
2022-10-04T23:48:02.504Z,102154.31
2022-10-04T23:50:34.207Z,102146.22
2022-10-04T23:53:06.391Z,102148.16
2022-10-04T23:55:40.451Z,102146.41
2022-10-04T23:58:18.591Z,102141.00
